Time;durP1;ratioP1;P1;durP2;ratioP2;P2;SDS_P1;SDS_P2;PMS_P1;PMS_P2;Temp;Humidity;BMP_temperature;BMP_pressure;BME280_temperature;BME280_humidity;BME280_pressure;Samples;Min_cycle;Max_cycle;Signal;HPM_P1;HPM_P2
2022/01/23 00:03:27;;;;;;;4.32;3.10;;;18.00;56.70;;;;;;10480581;28;20098;-57
2022/01/23 00:08:28;;;;;;;4.85;2.90;;;17.90;56.70;;;;;;10478097;28;20120;-56
2022/01/23 00:17:12;;;;;;;3.47;2.20;;;18.00;56.80;;;;;;10478509;28;20408;-57
2022/01/23 00:18:49;;;;;;;3.25;2.40;;;17.90;56.80;;;;;;10522915;28;20064;-57
2022/01/23 00:34:10;;;;;;;6.80;3.28;;;18.00;56.20;;;;;;10516759;28;20504;-57
2022/01/23 00:39:11;;;;;;;3.22;2.30;;;17.90;56.70;;;;;;10517649;28;20036;-57
2022/01/23 00:44:12;;;;;;;3.85;2.95;;;17.90;56.70;;;;;;10523814;28;20032;-57
2022/01/23 00:49:24;;;;;;;3.00;2.35;;;17.90;56.70;;;;;;10477725;28;20392;-56
2022/01/23 00:54:26;;;;;;;3.17;2.70;;;18.00;56.80;;;;;;10493537;28;20036;-57
2022/01/23 00:59:27;;;;;;;3.30;2.60;;;17.90;56.70;;;;;;10478029;28;20020;-57
2022/01/23 01:04:28;;;;;;;5.88;2.72;;;17.90;56.70;;;;;;10504575;28;20104;-56
2022/01/23 01:09:30;;;;;;;2.92;2.63;;;17.90;56.70;;;;;;10477477;28;20039;-57
2022/01/23 01:30:33;;;;;;;5.53;2.93;;;17.90;56.70;;;;;;10522993;28;20438;-57
2022/01/23 01:35:40;;;;;;;3.33;2.45;;;17.90;56.70;;;;;;10504530;28;20417;-57
2022/01/23 01:40:41;;;;;;;3.58;2.47;;;17.90;56.70;;;;;;10485805;28;20396;-56
2022/01/23 01:45:42;;;;;;;3.67;2.30;;;17.90;56.70;;;;;;10518018;28;20032;-57
2022/01/23 01:50:46;;;;;;;4.90;3.08;;;18.00;56.70;;;;;;10494300;28;20034;-57
2022/01/23 01:55:52;;;;;;;3.72;2.92;;;18.00;56.70;;;;;;10526198;28;20031;-55
2022/01/23 02:00:57;;;;;;;3.65;2.63;;;18.00;56.70;;;;;;10511953;28;20033;-57
2022/01/23 02:11:24;;;;;;;4.65;2.50;;;18.00;56.60;;;;;;10507918;28;20035;-58
2022/01/23 02:59:13;;;;;;;3.70;2.80;;;17.90;56.50;;;;;;10470907;28;20438;-57
2022/01/23 03:04:14;;;;;;;5.25;3.05;;;17.90;56.60;;;;;;10524215;28;20063;-57
2022/01/23 03:30:13;;;;;;;3.17;2.35;;;17.90;56.60;;;;;;10511179;28;20032;-57
2022/01/23 03:35:16;;;;;;;3.60;2.47;;;18.00;56.50;;;;;;10511966;28;20054;-57
2022/01/23 03:40:17;;;;;;;3.08;2.67;;;17.90;56.60;;;;;;10521807;28;20020;-58
2022/01/23 03:50:30;;;;;;;2.90;2.47;;;17.90;56.50;;;;;;10501967;28;20040;-57
2022/01/23 03:55:32;;;;;;;3.58;2.45;;;18.00;56.60;;;;;;10515746;28;20040;-57
2022/01/23 04:00:33;;;;;;;3.95;2.70;;;18.00;56.60;;;;;;10507423;28;20430;-57
2022/01/23 04:05:35;;;;;;;3.28;2.35;;;18.00;56.60;;;;;;10496771;28;20032;-56
2022/01/23 04:10:37;;;;;;;3.50;2.58;;;18.00;56.50;;;;;;10520502;28;20035;-57
2022/01/23 04:15:48;;;;;;;3.47;2.88;;;18.00;56.60;;;;;;10524793;28;20055;-56
2022/01/23 05:08:37;;;;;;;2.83;2.40;;;17.90;56.80;;;;;;10462396;28;20040;-56
2022/01/23 05:13:37;;;;;;;3.42;3.10;;;17.80;56.80;;;;;;10485976;28;20029;-57
2022/01/23 05:18:39;;;;;;;3.67;2.95;;;17.90;56.80;;;;;;10486010;28;20025;-57
2022/01/23 05:23:40;;;;;;;3.40;2.55;;;17.90;56.90;;;;;;10494266;28;20385;-57
2022/01/23 05:28:40;;;;;;;3.42;2.55;;;17.90;56.80;;;;;;10505427;28;20029;-56
2022/01/23 05:33:41;;;;;;;3.40;2.40;;;17.90;56.90;;;;;;10519606;28;20123;-57
2022/01/23 05:38:42;;;;;;;4.10;2.22;;;17.90;56.80;;;;;;10507909;28;20134;-57
2022/01/23 05:43:43;;;;;;;3.85;2.47;;;17.80;56.90;;;;;;10516429;28;20110;-56
2022/01/23 05:48:44;;;;;;;4.68;2.45;;;17.80;56.80;;;;;;10501505;28;20143;-57
2022/01/23 05:53:45;;;;;;;3.25;2.53;;;17.80;56.80;;;;;;10534495;28;20399;-57
2022/01/23 05:58:45;;;;;;;3.30;2.70;;;17.80;56.80;;;;;;10484462;28;20024;-57
2022/01/23 06:03:46;;;;;;;4.07;3.03;;;17.90;56.90;;;;;;10514188;28;20036;-57
2022/01/23 06:08:47;;;;;;;4.47;3.17;;;17.80;56.80;;;;;;10504559;28;20020;-58
2022/01/23 06:13:48;;;;;;;5.95;2.88;;;17.80;57.10;;;;;;10512094;28;20050;-58
2022/01/23 06:18:48;;;;;;;9.07;3.00;;;18.10;57.20;;;;;;10527950;28;20629;-58
2022/01/23 06:23:59;;;;;;;11.23;3.42;;;18.00;58.50;;;;;;10513753;28;20122;-58
2022/01/23 06:29:04;;;;;;;6.65;2.80;;;18.00;59.40;;;;;;10509079;28;20052;-57
2022/01/23 06:34:07;;;;;;;6.13;2.60;;;18.10;58.70;;;;;;10507565;28;20048;-58
2022/01/23 06:39:11;;;;;;;12.82;3.35;;;18.20;58.70;;;;;;10496337;28;20492;-59
2022/01/23 06:44:12;;;;;;;9.48;3.00;;;18.10;58.60;;;;;;10520125;28;20036;-57
2022/01/23 06:49:13;;;;;;;14.95;3.60;;;18.10;58.80;;;;;;10520965;28;20543;-56
2022/01/23 06:54:13;;;;;;;9.02;2.80;;;18.00;58.70;;;;;;10503169;28;20090;-56
2022/01/23 06:59:14;;;;;;;8.40;3.53;;;18.10;58.80;;;;;;10520612;28;20024;-57
2022/01/23 07:04:15;;;;;;;8.82;3.28;;;18.10;59.30;;;;;;10507807;28;20039;-57
2022/01/23 07:09:15;;;;;;;5.90;3.20;;;18.00;59.40;;;;;;10470598;28;20111;-56
2022/01/23 07:14:16;;;;;;;10.75;3.60;;;17.90;59.30;;;;;;10499441;28;20030;-57
2022/01/23 07:19:17;;;;;;;9.63;3.47;;;18.00;59.40;;;;;;10489205;28;20082;-57
2022/01/23 07:24:19;;;;;;;7.75;3.08;;;18.10;59.00;;;;;;10511965;28;20024;-56
2022/01/23 07:29:20;;;;;;;7.30;3.65;;;18.00;59.10;;;;;;10507716;28;20027;-57
2022/01/23 07:34:21;;;;;;;8.55;3.40;;;17.90;59.10;;;;;;10507529;28;20442;-57
2022/01/23 07:39:21;;;;;;;5.45;3.17;;;17.90;59.20;;;;;;10535753;28;20123;-56
2022/01/23 07:44:22;;;;;;;10.43;3.20;;;17.80;59.60;;;;;;10495326;28;20032;-56
2022/01/23 07:49:23;;;;;;;9.40;3.47;;;17.80;59.50;;;;;;10476270;28;20460;-59
2022/01/23 07:54:24;;;;;;;8.55;3.55;;;17.80;59.60;;;;;;10495340;28;20034;-56
2022/01/23 07:59:24;;;;;;;6.30;3.58;;;17.70;59.50;;;;;;10502846;28;20033;-57
2022/01/23 08:04:25;;;;;;;6.97;4.05;;;17.70;59.10;;;;;;10513381;28;20165;-57
2022/01/23 08:09:26;;;;;;;10.85;3.75;;;17.70;59.10;;;;;;10518990;28;20104;-57
2022/01/23 08:14:26;;;;;;;8.98;3.50;;;17.70;59.10;;;;;;10478960;28;20037;-57
2022/01/23 08:19:28;;;;;;;5.45;3.50;;;17.70;58.80;;;;;;10476644;28;20090;-57
2022/01/23 08:24:29;;;;;;;6.65;3.30;;;17.70;58.90;;;;;;10514797;28;20033;-57
2022/01/23 08:29:30;;;;;;;8.20;3.17;;;17.60;59.00;;;;;;10459069;28;20028;-56
2022/01/23 08:34:30;;;;;;;5.40;3.13;;;17.60;58.70;;;;;;10478031;28;20473;-57
2022/01/23 08:39:35;;;;;;;4.65;3.33;;;17.70;58.50;;;;;;10484630;28;20024;-57
2022/01/23 08:44:36;;;;;;;4.57;3.10;;;17.70;58.50;;;;;;10532141;28;20036;-57
2022/01/23 08:49:44;;;;;;;5.57;2.95;;;17.70;58.30;;;;;;10490597;28;20024;-57
2022/01/23 08:54:50;;;;;;;4.78;2.70;;;17.80;58.10;;;;;;10492274;28;20553;-57
2022/01/23 08:59:52;;;;;;;3.88;2.22;;;17.80;58.00;;;;;;10481446;28;20031;-56
2022/01/23 09:04:53;;;;;;;3.55;2.90;;;17.80;58.10;;;;;;10476518;28;20067;-56
2022/01/23 09:10:00;;;;;;;5.07;2.72;;;17.80;57.90;;;;;;10476221;28;20037;-57
2022/01/23 09:15:01;;;;;;;4.45;2.50;;;17.80;57.80;;;;;;10488459;28;20032;-57
2022/01/23 09:20:03;;;;;;;3.80;2.88;;;17.80;57.80;;;;;;10510360;28;20021;-57
2022/01/23 09:25:04;;;;;;;3.22;2.63;;;17.80;57.90;;;;;;10497995;28;20464;-57
2022/01/23 09:30:16;;;;;;;4.25;2.35;;;17.80;58.00;;;;;;10514675;28;20036;-57
2022/01/23 09:35:18;;;;;;;5.15;2.53;;;17.80;57.70;;;;;;10434927;28;20039;-58
2022/01/23 09:40:18;;;;;;;7.70;2.72;;;17.80;57.70;;;;;;10442814;28;20056;-56
2022/01/23 09:45:20;;;;;;;5.93;2.80;;;17.80;57.80;;;;;;10441309;28;20381;-56
2022/01/23 09:50:22;;;;;;;5.15;2.63;;;17.90;58.10;;;;;;10429167;28;20025;-55
2022/01/23 09:55:26;;;;;;;8.45;3.42;;;17.90;58.10;;;;;;10439254;28;20513;-56
2022/01/23 10:00:30;;;;;;;14.90;3.42;;;17.90;58.60;;;;;;10437342;28;20033;-59
2022/01/23 10:05:31;;;;;;;14.30;3.33;;;17.90;58.70;;;;;;10429202;28;20087;-56
2022/01/23 10:10:36;;;;;;;11.23;3.40;;;17.80;59.00;;;;;;10444809;28;20032;-55
2022/01/23 10:15:36;;;;;;;15.98;4.75;;;17.80;60.00;;;;;;10430849;28;20026;-57
2022/01/23 10:20:37;;;;;;;18.92;4.35;;;17.70;59.80;;;;;;10417377;28;20120;-56
2022/01/23 10:25:43;;;;;;;20.27;4.80;;;17.70;60.40;;;;;;10444971;28;20040;-55
2022/01/23 10:30:55;;;;;;;15.88;3.75;;;17.70;60.70;;;;;;10441360;28;20037;-55
2022/01/23 10:36:07;;;;;;;17.70;4.40;;;17.60;60.60;;;;;;10438634;28;20497;-55
2022/01/23 10:51:55;;;;;;;26.55;5.85;;;17.60;60.70;;;;;;10410693;28;20038;-57
2022/01/23 10:57:00;;;;;;;21.95;4.55;;;17.50;61.40;;;;;;10442002;28;20067;-53
2022/01/23 11:02:08;;;;;;;18.40;3.97;;;17.50;61.50;;;;;;10439675;28;20032;-55
2022/01/23 11:07:10;;;;;;;23.63;4.50;;;17.50;61.60;;;;;;10444868;28;20032;-56
2022/01/23 11:12:44;;;;;;;14.85;4.18;;;17.80;61.30;;;;;;10438635;28;20115;-56
2022/01/23 11:17:52;;;;;;;;;;;17.90;61.10;;;;;;10435204;28;20041;-56
2022/01/23 11:23:10;;;;;;;13.35;3.55;;;18.00;60.80;;;;;;10434160;28;19916;-56
2022/01/23 11:28:12;;;;;;;9.25;3.13;;;17.90;61.30;;;;;;10446784;28;20029;-56
2022/01/23 11:33:19;;;;;;;10.40;4.13;;;17.90;61.40;;;;;;10456651;28;20127;-56
2022/01/23 11:38:22;;;;;;;12.85;3.53;;;17.80;61.30;;;;;;10480668;28;20365;-56
2022/01/23 11:54:40;;;;;;;10.60;3.10;;;17.70;61.20;;;;;;10509937;28;20131;-56
2022/01/23 11:59:47;;;;;;;8.88;3.25;;;17.70;61.10;;;;;;10482633;28;20114;-54
2022/01/23 12:05:09;;;;;;;7.45;3.30;;;17.60;61.00;;;;;;10495627;28;20063;-53
2022/01/23 12:10:28;;;;;;;13.07;4.80;;;17.50;60.80;;;;;;10513278;28;20472;-54
2022/01/23 12:20:51;;;;;;;7.57;3.67;;;17.40;60.50;;;;;;10490563;28;20405;-56
2022/01/23 12:25:57;;;;;;;12.63;4.28;;;17.50;60.40;;;;;;10503095;28;20035;-55
2022/01/23 12:31:13;;;;;;;20.05;4.53;;;17.50;60.30;;;;;;10506638;28;20055;-56
2022/01/23 12:36:14;;;;;;;15.80;4.07;;;17.60;60.50;;;;;;10523301;28;20101;-57
2022/01/23 12:41:29;;;;;;;16.00;4.47;;;17.60;60.50;;;;;;10511285;28;20087;-56
2022/01/23 12:46:38;;;;;;;17.17;3.60;;;17.60;60.50;;;;;;10507567;28;20036;-54
2022/01/23 12:51:39;;;;;;;13.30;4.38;;;17.70;60.10;;;;;;10535297;28;20039;-55
2022/01/23 12:56:45;;;;;;;14.40;3.35;;;17.60;60.00;;;;;;10500358;28;20696;-56
2022/01/23 13:01:47;;;;;;;12.75;3.53;;;17.70;59.80;;;;;;10508119;28;20024;-56
2022/01/23 13:06:53;;;;;;;16.63;3.28;;;17.70;59.70;;;;;;10521855;28;20024;-56
2022/01/23 13:12:18;;;;;;;9.93;3.42;;;17.60;59.70;;;;;;10516725;28;20422;-57
2022/01/23 13:33:27;;;;;;;6.32;2.30;;;17.80;59.10;;;;;;10528657;28;20044;-56
2022/01/23 13:38:33;;;;;;;5.72;2.88;;;17.80;59.10;;;;;;10488239;28;20523;-56
2022/01/23 13:50:01;;;;;;;6.07;2.83;;;17.70;58.90;;;;;;10518527;28;20047;-56
2022/01/23 13:59:49;;;;;;;6.65;2.65;;;17.70;59.10;;;;;;10486462;28;20052;-55
2022/01/23 14:05:11;;;;;;;6.75;2.40;;;17.80;59.00;;;;;;10515591;28;20490;-56
2022/01/23 14:10:21;;;;;;;4.93;2.67;;;17.70;58.80;;;;;;10501077;28;20487;-57
2022/01/23 14:15:28;;;;;;;;;;;17.90;58.60;;;;;;10526079;28;20032;-56
2022/01/23 14:20:33;;;;;;;5.07;2.08;;;17.80;58.60;;;;;;10525756;28;19908;-56
2022/01/23 14:25:34;;;;;;;3.50;1.85;;;17.70;58.80;;;;;;10542765;28;20036;-56
2022/01/23 14:30:47;;;;;;;4.13;2.00;;;17.70;58.90;;;;;;10510635;28;20045;-54
2022/01/23 14:35:50;;;;;;;3.78;1.98;;;17.80;58.70;;;;;;10497089;28;20051;-56
2022/01/23 14:40:58;;;;;;;6.72;2.45;;;17.80;58.60;;;;;;10482974;28;20032;-56
2022/01/23 14:46:03;;;;;;;4.00;2.00;;;17.90;58.50;;;;;;10504279;28;20480;-56
2022/01/23 14:51:05;;;;;;;3.42;2.13;;;17.90;58.40;;;;;;10484891;28;20024;-56
2022/01/23 14:56:10;;;;;;;5.68;2.58;;;17.80;58.50;;;;;;10482400;28;20700;-56
2022/01/23 15:01:13;;;;;;;4.25;2.08;;;17.70;58.60;;;;;;10467076;28;20025;-55
2022/01/23 15:06:15;;;;;;;6.03;2.28;;;17.80;58.50;;;;;;10494874;28;20127;-56
2022/01/23 15:11:17;;;;;;;3.08;1.95;;;17.80;58.30;;;;;;10500469;28;20038;-55
2022/01/23 15:16:18;;;;;;;3.45;1.83;;;17.80;58.30;;;;;;10506086;28;20081;-57
2022/01/23 15:21:19;;;;;;;4.43;1.92;;;17.80;58.40;;;;;;10513298;28;20035;-56
2022/01/23 15:26:19;;;;;;;8.10;2.15;;;17.80;58.30;;;;;;10485789;28;20127;-56
2022/01/23 15:31:20;;;;;;;2.90;1.80;;;17.80;58.10;;;;;;10505385;28;20032;-56
2022/01/23 15:36:21;;;;;;;4.25;1.98;;;17.80;58.20;;;;;;10494517;28;20048;-56
2022/01/23 15:41:22;;;;;;;4.60;1.38;;;17.80;58.00;;;;;;10501089;28;20158;-56
2022/01/23 15:46:23;;;;;;;4.43;1.95;;;17.90;58.00;;;;;;10497646;28;20476;-55
2022/01/23 15:51:24;;;;;;;3.95;1.55;;;17.80;58.20;;;;;;10496157;28;20040;-56
2022/01/23 15:56:25;;;;;;;2.65;1.30;;;17.80;58.20;;;;;;10521282;28;20866;-56
2022/01/23 16:01:25;;;;;;;1.77;1.30;;;17.80;58.00;;;;;;10514024;28;20020;-56
2022/01/23 16:06:26;;;;;;;4.72;1.42;;;17.90;57.90;;;;;;10513211;28;20050;-56
2022/01/23 16:11:27;;;;;;;4.75;1.90;;;17.90;57.80;;;;;;10498378;28;20056;-56
2022/01/23 16:16:29;;;;;;;3.95;1.83;;;17.80;57.80;;;;;;10478606;28;20029;-56
2022/01/23 16:21:29;;;;;;;4.07;1.55;;;17.80;58.00;;;;;;10498135;28;20101;-56
2022/01/23 16:26:30;;;;;;;4.18;2.15;;;17.80;57.90;;;;;;10481920;28;20082;-55
2022/01/23 16:31:31;;;;;;;1.80;1.58;;;17.80;57.80;;;;;;10503767;28;20074;-56
2022/01/23 16:36:33;;;;;;;5.47;1.80;;;17.80;57.90;;;;;;10503033;28;20028;-56
2022/01/23 16:41:34;;;;;;;3.80;2.13;;;17.80;57.70;;;;;;10510696;28;20241;-56
2022/01/23 16:46:41;;;;;;;2.65;1.55;;;17.80;57.70;;;;;;10503415;28;20380;-56
2022/01/23 16:51:42;;;;;;;3.20;1.92;;;17.80;57.70;;;;;;10517494;28;20028;-55
2022/01/23 16:56:43;;;;;;;3.08;2.00;;;17.80;57.60;;;;;;10491748;28;20028;-56
2022/01/23 17:01:46;;;;;;;2.03;1.55;;;17.80;57.60;;;;;;10537140;28;20090;-56
2022/01/23 17:06:47;;;;;;;3.10;1.73;;;17.90;57.70;;;;;;10523278;28;20028;-55
2022/01/23 17:11:48;;;;;;;3.45;2.20;;;17.90;57.40;;;;;;10517748;28;20024;-56
2022/01/23 17:16:49;;;;;;;2.97;2.10;;;17.90;57.50;;;;;;10491342;28;20059;-56
2022/01/23 17:21:49;;;;;;;3.35;1.58;;;17.90;57.50;;;;;;10491541;28;20036;-55
2022/01/23 17:26:50;;;;;;;2.33;1.33;;;17.90;57.40;;;;;;10509178;28;20035;-56
2022/01/23 17:31:51;;;;;;;4.03;2.10;;;17.90;57.40;;;;;;10533185;28;20051;-55
2022/01/23 17:36:52;;;;;;;3.55;1.92;;;17.90;57.30;;;;;;10520697;28;20120;-56
2022/01/23 17:41:53;;;;;;;1.92;1.40;;;17.90;57.30;;;;;;10497684;28;20069;-56
2022/01/23 17:47:05;;;;;;;2.15;1.63;;;17.90;57.40;;;;;;10491062;28;20416;-56
2022/01/23 17:52:09;;;;;;;2.45;1.52;;;17.90;57.20;;;;;;10492916;28;20101;-56
2022/01/23 17:57:10;;;;;;;3.30;2.10;;;17.90;57.10;;;;;;10490962;28;20123;-56
2022/01/23 18:02:15;;;;;;;3.47;2.40;;;17.90;57.30;;;;;;10530681;28;20030;-56
2022/01/23 18:07:17;;;;;;;3.47;2.33;;;17.90;57.30;;;;;;10498783;28;20059;-56
2022/01/23 18:12:17;;;;;;;3.55;2.33;;;17.90;57.10;;;;;;10511670;28;20076;-56
2022/01/23 18:17:19;;;;;;;3.60;2.78;;;17.80;57.00;;;;;;10543378;28;20610;-56
2022/01/23 18:22:22;;;;;;;2.75;1.80;;;17.80;57.10;;;;;;10515360;28;20035;-57
2022/01/23 18:27:24;;;;;;;3.38;2.15;;;17.90;57.10;;;;;;10491730;28;20490;-56
2022/01/23 18:32:24;;;;;;;3.13;2.25;;;17.90;57.70;;;;;;10502271;28;20043;-55
2022/01/23 18:37:25;;;;;;;2.83;2.22;;;17.90;57.00;;;;;;10490031;28;20028;-55
2022/01/23 18:42:26;;;;;;;3.05;2.33;;;17.90;57.10;;;;;;10499072;28;20025;-57
2022/01/23 18:47:26;;;;;;;2.80;2.25;;;17.90;56.90;;;;;;10482434;28;20020;-57
2022/01/23 18:52:29;;;;;;;4.40;2.85;;;17.90;56.90;;;;;;10489240;28;20021;-56
2022/01/23 18:57:37;;;;;;;3.20;2.38;;;17.80;57.00;;;;;;10481911;28;20556;-57
2022/01/23 19:02:48;;;;;;;7.72;2.60;;;17.90;56.80;;;;;;10468223;28;20021;-57
2022/01/23 19:08:10;;;;;;;6.22;4.07;;;17.90;57.00;;;;;;10501862;28;20025;-58
2022/01/23 19:13:17;;;;;;;8.00;3.53;;;17.90;57.20;;;;;;10530529;28;20042;-56
2022/01/23 19:18:20;;;;;;;7.57;3.45;;;17.90;57.50;;;;;;10517150;28;20035;-56
2022/01/23 19:23:21;;;;;;;4.55;2.95;;;17.90;57.50;;;;;;10489276;28;20028;-57
2022/01/23 19:28:24;;;;;;;4.63;3.33;;;17.90;57.60;;;;;;10539473;28;20082;-55
2022/01/23 19:33:24;;;;;;;5.63;3.50;;;17.90;57.70;;;;;;10505184;28;20040;-56
2022/01/23 19:38:27;;;;;;;5.38;3.40;;;17.90;57.70;;;;;;10524843;28;20031;-57
2022/01/23 19:43:46;;;;;;;4.75;3.78;;;17.90;57.70;;;;;;10511409;28;20028;-57
2022/01/23 19:48:51;;;;;;;4.13;3.72;;;17.90;57.80;;;;;;10509941;28;20035;-57
2022/01/23 19:53:52;;;;;;;4.93;3.10;;;17.90;57.80;;;;;;10492183;28;20028;-56
2022/01/23 19:58:52;;;;;;;6.55;3.97;;;17.90;57.90;;;;;;10482679;28;20047;-56
2022/01/23 20:03:53;;;;;;;6.07;3.72;;;17.90;57.90;;;;;;10489673;28;20035;-56
2022/01/23 20:08:56;;;;;;;4.95;3.75;;;18.00;57.80;;;;;;10494138;28;20097;-57
2022/01/23 20:13:57;;;;;;;4.25;3.63;;;17.90;57.80;;;;;;10491002;28;20067;-56
2022/01/23 20:18:59;;;;;;;4.88;3.15;;;17.90;57.80;;;;;;10515926;28;20433;-56
2022/01/23 20:24:04;;;;;;;3.42;3.10;;;18.00;57.80;;;;;;10486777;28;20037;-56
2022/01/23 20:29:05;;;;;;;3.58;3.03;;;17.90;57.80;;;;;;10482835;28;20036;-57
2022/01/23 20:34:05;;;;;;;4.85;3.20;;;18.00;57.90;;;;;;10509383;28;20143;-56
2022/01/23 20:39:06;;;;;;;4.53;3.33;;;17.90;57.80;;;;;;10513765;28;20119;-57
2022/01/23 20:44:07;;;;;;;4.07;3.60;;;17.90;57.90;;;;;;10497827;28;20028;-57
2022/01/23 20:49:08;;;;;;;5.00;3.65;;;17.90;57.80;;;;;;10496239;28;20057;-58
2022/01/23 20:54:09;;;;;;;5.38;3.17;;;17.90;57.80;;;;;;10504193;28;20473;-56
2022/01/23 20:59:10;;;;;;;4.00;3.20;;;17.90;57.70;;;;;;10515857;28;20556;-56
2022/01/23 21:04:11;;;;;;;4.32;3.22;;;17.90;57.60;;;;;;10521738;28;20107;-57
2022/01/23 21:09:12;;;;;;;3.45;3.15;;;17.90;57.60;;;;;;10520774;28;20043;-56
2022/01/23 21:14:20;;;;;;;4.57;3.35;;;17.80;57.50;;;;;;10513480;28;20031;-56
2022/01/23 21:40:15;;;;;;;3.23;2.90;;;17.90;57.20;;;;;;10446397;28;20040;-57
2022/01/23 21:45:16;;;;;;;3.83;3.13;;;17.90;57.30;;;;;;10446577;28;20050;-57
2022/01/23 21:50:17;;;;;;;5.30;3.55;;;17.80;57.20;;;;;;10460226;28;20029;-57
2022/01/23 21:55:19;;;;;;;3.85;3.40;;;17.90;57.20;;;;;;10453844;28;20478;-57
2022/01/23 22:00:19;;;;;;;3.95;3.55;;;17.90;57.20;;;;;;10415398;28;20030;-57
2022/01/23 22:05:20;;;;;;;4.72;3.58;;;17.90;57.30;;;;;;10443293;28;20079;-57
2022/01/23 22:20:43;;;;;;;4.50;3.70;;;17.90;57.20;;;;;;10436246;28;20072;-56
2022/01/23 22:31:03;;;;;;;5.32;3.92;;;17.80;57.00;;;;;;10444680;28;20037;-56
2022/01/23 22:36:04;;;;;;;6.35;3.80;;;17.90;57.00;;;;;;10430014;28;20045;-57
2022/01/23 22:41:05;;;;;;;4.65;2.97;;;17.90;57.00;;;;;;10417228;28;20654;-57
2022/01/23 22:51:06;;;;;;;4.68;3.33;;;17.90;56.80;;;;;;10430609;28;20548;-57
2022/01/23 22:56:07;;;;;;;4.13;2.97;;;18.00;56.70;;;;;;10441997;28;20036;-57
2022/01/23 23:01:08;;;;;;;3.85;3.35;;;18.00;56.60;;;;;;10428398;28;20021;-57
2022/01/23 23:06:09;;;;;;;3.97;3.17;;;18.00;56.50;;;;;;10427182;28;20040;-57
2022/01/23 23:11:13;;;;;;;3.90;3.03;;;18.00;56.50;;;;;;10429239;28;20030;-57
2022/01/23 23:16:20;;;;;;;3.58;3.10;;;18.00;56.40;;;;;;10442830;28;20028;-57
2022/01/23 23:21:39;;;;;;;4.75;3.30;;;18.00;56.40;;;;;;10422209;28;20032;-56
2022/01/23 23:26:41;;;;;;;4.70;3.67;;;17.90;56.50;;;;;;10436388;28;20037;-57
2022/01/23 23:31:43;;;;;;;3.80;2.92;;;18.00;56.60;;;;;;10433438;28;20135;-57
2022/01/23 23:36:43;;;;;;;4.80;3.22;;;17.90;56.60;;;;;;10493081;28;20032;-57
2022/01/23 23:41:45;;;;;;;3.85;3.45;;;17.90;56.60;;;;;;10495275;28;20037;-56
2022/01/23 23:46:46;;;;;;;4.15;3.05;;;17.90;56.60;;;;;;10497768;28;20106;-57
2022/01/23 23:51:48;;;;;;;3.58;2.92;;;17.90;56.60;;;;;;10480207;28;20097;-56
2022/01/23 23:56:53;;;;;;;4.70;3.78;;;17.90;56.40;;;;;;10507084;28;20442;-56
